Aeroporto :
LOGIN :

Iscrizione | Disclaimer

   EN    FR    IT 

 










Sommario :    VFR   VFR Marginale   IFR   IFR Intensivo   IFR Molto Intensivo
Visibilità : 
Base nubi : 
>= 8 km
>= 3000ft
5 / 8 km
1000 / 3000 ft
1500m / 5 km
500 / 1000 ft
800 / 1500m
200 / 500 ft
< 800m
< 200 ft
Simboli :   Temporali  Nebbia  Neve Forte  Precipitazioni Forti  Vento > 20 kt
SIGMETs :   Varie  Temporali  Ghiacco  Turbolenza  Onda orograficha  Ceneri Vulcaniche






- Altitudine del aeroporto : 124 ft
- Codice IATA : RNS


LFRN - Rennes

ULTIMO METAR :
  • 271930Z AUTO 20004KT 9999 -RA FEW010 SCT024 OVC058 10/10 Q1012 TEMPO 3000 SHRA BKN009 BKN015CB

METARs OBSOLETI :
  • 271900Z AUTO 24003KT 9999 FEW024/// SCT038/// OVC058/// //////TCU 10/10 Q1012 TEMPO 3000 SHRA BKN009 BKN015CB
  • 271830Z AUTO 23003KT CAVOK 10/09 Q1012 TEMPO 3000 SHRA BKN009 BKN015CB
  • 271800Z AUTO 22004KT 9999 BKN046/// BKN052/// BKN064/// //////TCU 10/10 Q1012 TEMPO 3000 SHRA BKN009 BKN015CB
  • 271730Z AUTO 22005KT 9999 ///CB 11/09 Q1012 TEMPO 3000 SHRA BKN009 BKN015CB
  • 271700Z AUTO 24004KT 150V280 9999 -RA FEW011/// SCT050/// BKN062/// //////TCU 11/09 Q1012 TEMPO 1200 RA BKN015CB

TAF TAF LFRN
Valido dal 27 a 18 ore il 28 a 18 ore UTC


271700Z 2718/2818 VRB05KT 9999 BKN030
TEMPO 2718/2721 3000 SHRA BKN009 BKN015CB
BECMG 2720/2722 24010KT
BECMG 2802/2804 18010KT
PROB40
TEMPO 2802/2806 2000 BR
TEMPO 2806/2818 VRB15G25KT 3000 SHRA BKN012CB
BECMG 2808/2810 24010KT
BECMG 2814/2816 30010KT
PROB30
TEMPO 2816/2818 2000 TSRAGS
ATIS : +33 2 99 67 72 50



MetMap, La meteo Aeronautica in un colpo d'occhio ! - Copyright ORBIFLY Dicembre 2007 - Disclaimer

ORBIFLY MET'MAP TEAM :

Programmazione e sviluppo : Alexandra Zaïnal
Concezione : Baudouin d'Aumeries
Supporto tecnico e logistico : Manuel Goepfert
Aiuto : Marc-Olivier Méhu
Aiuto per la traduzione : Arnaldo La Scala




FONTI E CREDITI :

   NOAA